Aérodrome :
LOGIN :

S'inscrire | Disclaimer

   EN    FR    IT 

 










Légende :    VFR   VFR Marginal   IFR   IFR Intensif   IFR Très Intensif
Visi : 
Plafond : 
>= 8 km
>= 3000ft
5 à 8 km
1000 à 3000 ft
1500m à 5 km
500 à 1000 ft
800 à 1500m
200 à 500 ft
< 800m
< 200 ft
Symboles :   Orages  Brouillard  Fortes neiges  Fortes précipitations  Vent > 20 kt
SIGMETs :   Divers  Orages  Givrage  Turbulence  Onde Orograph.  Cendres Volcan.







- Altitude de l'aérodrome : 479 ft
- Code IATA : DOL
- Voir les cartes d'approche


LFRG - Deauville

DERNIER METAR :
  • 231600Z AUTO 30021KT 9999 BKN035 BKN042 09/04 Q1005 BECMG 29025G37KT

METARs EXPIRÉS :
  • 231530Z AUTO 30022KT 9999 FEW033 BKN040 BKN046 09/04 Q1004 BECMG 29025G37KT
  • 231500Z AUTO 30022KT 9999 OVC038 10/04 Q1004 BECMG 29025G37KT
  • 231430Z AUTO 29022KT 9999 OVC036 10/04 Q1004 BECMG 29025G37KT
  • 231400Z AUTO 29022KT 9999 BKN033 BKN040 10/04 Q1004 TEMPO SHRA BECMG 27025G35KT
  • 231330Z AUTO 29020KT 9999 BKN032 BKN039 OVC045 11/05 Q1004 TEMPO SHRA BECMG 27025G35KT

TAF TAF LFRG
Valide du 23 à 15h jusqu'au 24 à 00h UTC


231400Z 2315/2324 29025G37KT 9999 BKN030
BECMG 2318/2321 28017G30KT
PROB30
TEMPO 2321/2324 5000 SHRA
ATIS : +33 2 31 65 65 36
Pas de NOTAMs connus pour ce terrain.
2 SIGMETs publiés pour la FIR Paris (LFFF) :
 
Turbulence forte
LFFF SIGMET 4 VALID 231600/232000 LFPW
LFFF PARIS FIR/UIR SEV TURB FCST N OF N4830 SFC/FL050 MOV NE 25KT WKN=
Turbulence forte
LFFF SIGMET 3 VALID 231300/231600 LFPW
LFFF PARIS FIR/UIR SEV TURB FCST N OF LINE N4815 W00015 - N4745 E00445 SFC/FL050 MOV NE 20KT NC=



MET'MAP, la Météo Aéronautique d'un coup d'oeil ! - Copyright ORBIFLY Décembre 2007 - Disclaimer

ORBIFLY MET'MAP TEAM :

Programmation & Développement : Alexandra Zaïnal
Conception & Développement : Baudouin d'Aumeries
Co-Programmation & Développement : Marc-Olivier Méhu
Soutien technique & logistique : Manuel Goepfert

Contact : metmap@orbifly.com




SOURCES & CREDITS :

   NOAA